Arlington Center, Vermont
Current Conditions -  °F | °C
As of 10:54 PM on Thursday 18 Dec 2014 (Local Time) from KDDH Reporting Station
Overcast Overcast  
Wind Chill: 23°   Ceiling: 2200
Heat Index: 31°   Visibility: 10mi
Dew Point: 24°   Wind: 8mph
Humidity: 76%   Direction: 290°WNW
Pressure: 29.89"   Gusts: NA
Location:  43.1041°N, 73.154°W
Report Text: KDDH 190354Z AUTO 29007KT 10SM OVC022 M01/M04 A2989 RMK AO2 SLP131 T10061044
Loading
Personal Weather Stations






























Interactive Weather Map New forecast layout! Learn more

10-Day Weather Forecast

Advertisements
Track Severe Weather on mobile